createdAt,value
2018-04-27T00:00:09.569Z,1.03
2018-04-27T00:02:37.057Z,2.20
2018-04-27T00:05:04.569Z,1.47
2018-04-27T00:07:32.089Z,1.83
2018-04-27T00:09:59.565Z,1.43
2018-04-27T00:12:27.085Z,1.87
2018-04-27T00:14:54.564Z,2.03
2018-04-27T00:17:22.037Z,1.60
2018-04-27T00:19:49.552Z,2.00
2018-04-27T00:22:17.280Z,1.73
2018-04-27T00:24:44.757Z,2.10
2018-04-27T00:27:12.276Z,1.97
2018-04-27T00:29:39.756Z,2.13
2018-04-27T00:32:07.236Z,2.13
2018-04-27T00:34:34.760Z,2.40
2018-04-27T00:37:02.234Z,2.10
2018-04-27T00:39:29.717Z,2.37
2018-04-27T00:41:57.228Z,2.20
2018-04-27T00:44:24.702Z,2.00
2018-04-27T00:46:52.189Z,2.20
2018-04-27T00:49:19.697Z,1.30
2018-04-27T00:51:47.181Z,1.97
2018-04-27T00:54:14.684Z,2.37
2018-04-27T00:56:42.200Z,2.17
2018-04-27T00:59:09.680Z,2.43
2018-04-27T01:01:37.160Z,3.60
2018-04-27T01:04:04.690Z,1.87
2018-04-27T01:06:32.173Z,2.30
2018-04-27T01:08:59.665Z,2.80
2018-04-27T01:11:27.181Z,2.30
2018-04-27T01:13:54.665Z,1.90
2018-04-27T01:16:22.140Z,1.83
2018-04-27T01:18:49.649Z,3.27
2018-04-27T01:21:17.125Z,2.43
2018-04-27T01:23:44.610Z,2.77
2018-04-27T01:26:12.121Z,2.90
2018-04-27T01:28:39.604Z,2.40
2018-04-27T01:31:07.080Z,2.50
2018-04-27T01:33:34.580Z,2.53
2018-04-27T01:36:02.069Z,2.00
2018-04-27T01:38:29.572Z,2.27
2018-04-27T01:40:57.077Z,2.10
2018-04-27T01:43:24.572Z,3.10
2018-04-27T01:45:52.048Z,2.83
2018-04-27T01:48:19.574Z,2.60
2018-04-27T01:50:47.057Z,2.40
2018-04-27T01:53:14.548Z,2.57
2018-04-27T01:55:42.056Z,2.50
2018-04-27T01:58:09.537Z,2.63
2018-04-27T02:00:37.025Z,2.50
2018-04-27T02:03:04.530Z,2.33
2018-04-27T02:05:32.025Z,3.00
2018-04-27T02:07:59.500Z,3.63
2018-04-27T02:10:27.028Z,2.07
2018-04-27T02:12:54.505Z,2.97
2018-04-27T02:15:21.993Z,2.10
2018-04-27T02:17:49.498Z,2.17
2018-04-27T02:20:16.973Z,1.93
2018-04-27T02:22:44.449Z,3.30
2018-04-27T02:25:11.965Z,2.43
2018-04-27T02:27:39.454Z,2.30
2018-04-27T02:30:06.929Z,2.33
2018-04-27T02:32:34.446Z,2.70
2018-04-27T02:35:01.926Z,2.80
2018-04-27T02:37:29.458Z,2.73
2018-04-27T02:39:56.956Z,2.30
2018-04-27T02:42:24.437Z,3.57
2018-04-27T02:44:51.919Z,3.00
2018-04-27T02:47:19.430Z,4.03
2018-04-27T02:49:46.913Z,2.47
2018-04-27T02:52:14.401Z,2.90
2018-04-27T02:54:41.909Z,2.90
2018-04-27T02:57:09.387Z,3.23
2018-04-27T02:59:36.881Z,2.23
2018-04-27T03:02:04.381Z,2.57
2018-04-27T03:04:31.861Z,2.83
2018-04-27T03:06:59.354Z,3.77
2018-04-27T03:09:26.861Z,3.07
2018-04-27T03:11:54.333Z,2.10
2018-04-27T03:14:21.805Z,2.40
2018-04-27T03:16:49.317Z,2.60
2018-04-27T03:19:16.797Z,2.90
2018-04-27T03:21:44.297Z,2.73
2018-04-27T03:24:11.809Z,2.83
2018-04-27T03:26:39.293Z,2.63
2018-04-27T03:29:06.778Z,2.83
2018-04-27T03:31:34.289Z,2.80
2018-04-27T03:34:01.797Z,3.20
2018-04-27T03:36:29.273Z,2.63
2018-04-27T03:38:56.776Z,3.13
2018-04-27T03:41:24.253Z,2.53
2018-04-27T03:43:51.756Z,2.97
2018-04-27T03:46:19.262Z,4.30
2018-04-27T03:48:46.737Z,2.60
2018-04-27T03:51:14.220Z,3.07
2018-04-27T03:53:41.722Z,3.07
2018-04-27T03:56:09.208Z,2.20
2018-04-27T03:58:36.688Z,2.30
2018-04-27T04:01:15.948Z,2.70
2018-04-27T04:03:55.381Z,3.20
2018-04-27T04:06:22.885Z,2.87
2018-04-27T04:08:50.414Z,3.90
2018-04-27T04:11:17.887Z,2.90
2018-04-27T04:13:45.393Z,2.53
2018-04-27T04:16:12.873Z,3.10
2018-04-27T04:18:40.356Z,2.60
2018-04-27T04:21:07.873Z,2.90
2018-04-27T04:23:35.359Z,2.67
2018-04-27T04:26:02.833Z,2.80
2018-04-27T04:28:30.332Z,2.67
2018-04-27T04:30:57.809Z,3.10
2018-04-27T04:33:25.283Z,3.30
2018-04-27T04:35:52.802Z,3.10
2018-04-27T04:38:20.313Z,2.10
2018-04-27T04:40:47.815Z,3.53
2018-04-27T04:43:15.337Z,2.70
2018-04-27T04:45:42.817Z,3.20
2018-04-27T04:48:10.315Z,3.10
2018-04-27T04:50:37.820Z,2.33
2018-04-27T04:53:05.311Z,3.10
2018-04-27T04:55:32.809Z,3.27
2018-04-27T04:58:00.319Z,2.90
2018-04-27T05:00:27.793Z,2.10
2018-04-27T05:02:55.295Z,3.70
2018-04-27T05:05:22.914Z,2.80
2018-04-27T05:07:50.396Z,3.33
2018-04-27T05:10:17.876Z,2.97
2018-04-27T05:12:45.745Z,2.90
2018-04-27T05:15:13.241Z,2.73
2018-04-27T05:17:40.713Z,3.60
2018-04-27T05:20:07.690Z,3.10
2018-04-27T05:22:35.181Z,3.07
2018-04-27T05:25:02.681Z,3.43
2018-04-27T05:27:30.153Z,3.30
2018-04-27T05:29:57.681Z,3.47
2018-04-27T05:32:25.158Z,3.30
2018-04-27T05:34:52.677Z,3.77
2018-04-27T05:37:20.173Z,2.87
2018-04-27T05:39:47.664Z,3.13
2018-04-27T05:42:15.502Z,2.70
2018-04-27T05:44:43.005Z,2.80
2018-04-27T05:47:10.486Z,3.80
2018-04-27T05:49:38.017Z,3.63
2018-04-27T05:52:05.513Z,3.30
2018-04-27T05:54:33.220Z,4.07
2018-04-27T05:57:00.705Z,3.33
2018-04-27T05:59:28.185Z,3.43
2018-04-27T06:01:55.845Z,3.80
2018-04-27T06:04:23.348Z,4.00
2018-04-27T06:06:50.875Z,3.83
2018-04-27T06:09:18.357Z,3.60
2018-04-27T06:11:45.833Z,4.33
2018-04-27T06:14:13.346Z,4.30
2018-04-27T06:16:40.881Z,5.57
2018-04-27T06:19:08.533Z,3.90
2018-04-27T06:21:36.027Z,4.53
2018-04-27T06:24:03.509Z,3.63
2018-04-27T06:26:31.028Z,4.90
2018-04-27T06:28:58.549Z,4.40
2018-04-27T06:31:26.281Z,4.30
2018-04-27T06:33:53.766Z,3.90
2018-04-27T06:36:21.276Z,4.00
2018-04-27T06:38:48.778Z,4.40
2018-04-27T06:41:16.300Z,5.37
2018-04-27T06:43:43.805Z,4.50
2018-04-27T06:46:11.282Z,4.43
2018-04-27T06:48:38.797Z,4.77
2018-04-27T06:51:06.300Z,4.77
2018-04-27T06:53:33.785Z,4.90
2018-04-27T06:56:01.493Z,4.10
2018-04-27T06:58:28.993Z,4.07
2018-04-27T07:00:56.472Z,4.90
2018-04-27T07:03:23.993Z,5.37
2018-04-27T07:05:51.484Z,3.60
2018-04-27T07:08:19.149Z,4.03
2018-04-27T07:10:46.632Z,4.43
2018-04-27T07:13:14.153Z,4.27
2018-04-27T07:15:41.681Z,3.90
2018-04-27T07:18:09.161Z,5.40
2018-04-27T07:20:37.013Z,5.57
2018-04-27T07:23:04.493Z,3.70
2018-04-27T07:25:31.972Z,3.97
2018-04-27T07:27:59.492Z,4.70
2018-04-27T07:30:26.974Z,4.80
2018-04-27T07:32:54.485Z,4.00
2018-04-27T07:35:21.984Z,5.53
2018-04-27T07:37:49.461Z,4.53
2018-04-27T07:40:16.976Z,4.73
2018-04-27T07:42:44.614Z,4.97
2018-04-27T07:45:12.510Z,4.50
2018-04-27T07:47:39.943Z,4.27
2018-04-27T07:50:07.429Z,4.77
2018-04-27T07:52:34.933Z,4.40
2018-04-27T07:55:02.415Z,4.57
2018-04-27T07:57:29.969Z,4.23
2018-04-27T07:59:57.476Z,4.47
2018-04-27T08:02:24.970Z,4.70
2018-04-27T08:04:52.477Z,4.77
2018-04-27T08:07:20.060Z,4.03
2018-04-27T08:09:47.657Z,4.57
2018-04-27T08:12:15.143Z,4.30
2018-04-27T08:14:42.621Z,3.50
2018-04-27T08:17:10.337Z,4.30
2018-04-27T08:19:37.816Z,2.90
2018-04-27T08:22:05.341Z,3.40
2018-04-27T08:24:32.925Z,3.80
2018-04-27T08:27:00.369Z,4.27
2018-04-27T08:29:28.647Z,3.37
2018-04-27T08:31:56.137Z,3.97
2018-04-27T08:34:23.956Z,3.80
2018-04-27T08:36:51.441Z,4.87
2018-04-27T08:39:18.936Z,3.23
2018-04-27T08:41:46.445Z,4.93
2018-04-27T08:44:13.917Z,3.27
2018-04-27T08:46:41.689Z,3.30
2018-04-27T08:49:09.168Z,3.93
2018-04-27T08:51:36.664Z,3.90
2018-04-27T08:54:04.185Z,3.70
2018-04-27T08:56:31.712Z,3.83
2018-04-27T08:58:59.581Z,3.77
2018-04-27T09:01:27.060Z,3.10
2018-04-27T09:03:54.601Z,2.63
2018-04-27T09:06:22.164Z,3.70
2018-04-27T09:08:49.633Z,3.93
2018-04-27T09:11:17.347Z,3.27
2018-04-27T09:13:44.844Z,3.13
2018-04-27T09:16:12.387Z,3.57
2018-04-27T09:18:39.853Z,3.50
2018-04-27T09:21:07.341Z,2.77
2018-04-27T09:23:35.001Z,3.13
2018-04-27T09:26:02.481Z,2.83
2018-04-27T09:28:29.980Z,3.00
2018-04-27T09:30:57.497Z,3.90
2018-04-27T09:33:24.988Z,3.27
2018-04-27T09:35:52.856Z,2.70
2018-04-27T09:38:20.357Z,3.43
2018-04-27T09:40:47.851Z,2.50
2018-04-27T09:43:15.378Z,2.80
2018-04-27T09:45:42.861Z,2.70
2018-04-27T09:48:10.517Z,3.23
2018-04-27T09:50:38.073Z,3.43
2018-04-27T09:53:05.504Z,4.13
2018-04-27T09:55:33.008Z,3.47
2018-04-27T09:58:00.489Z,3.53
2018-04-27T10:00:28.093Z,3.30
2018-04-27T10:02:55.587Z,2.23
2018-04-27T10:05:23.064Z,2.37
2018-04-27T10:07:50.601Z,2.70
2018-04-27T10:10:18.086Z,2.60
2018-04-27T10:12:45.717Z,2.00
2018-04-27T10:15:13.188Z,2.60
2018-04-27T10:17:40.675Z,2.37
2018-04-27T10:20:08.182Z,2.80
2018-04-27T10:22:35.661Z,2.60
2018-04-27T10:25:03.173Z,2.27
2018-04-27T10:27:30.648Z,1.90
2018-04-27T10:29:58.125Z,1.80
2018-04-27T10:32:25.673Z,2.07
2018-04-27T10:34:53.165Z,2.90
2018-04-27T10:37:20.929Z,2.30
2018-04-27T10:39:48.461Z,2.50
2018-04-27T10:42:15.937Z,2.70
2018-04-27T10:44:43.434Z,2.67
2018-04-27T10:47:10.913Z,2.60
2018-04-27T10:49:38.701Z,2.17
2018-04-27T10:52:06.179Z,2.20
2018-04-27T10:54:33.658Z,4.47
2018-04-27T10:57:01.162Z,1.97
2018-04-27T10:59:28.637Z,2.90
2018-04-27T11:01:56.344Z,3.60
2018-04-27T11:04:23.816Z,2.80
2018-04-27T11:06:51.301Z,3.33
2018-04-27T11:09:18.800Z,3.00
2018-04-27T11:11:46.281Z,2.77
2018-04-27T11:14:14.049Z,3.53
2018-04-27T11:16:41.573Z,3.20
2018-04-27T11:19:09.021Z,2.83
2018-04-27T11:21:36.553Z,4.33
2018-04-27T11:24:04.349Z,4.00
2018-04-27T11:26:32.065Z,3.43
2018-04-27T11:28:59.542Z,4.10
2018-04-27T11:31:27.020Z,3.70
2018-04-27T11:33:54.521Z,3.50
2018-04-27T11:36:21.996Z,3.40
2018-04-27T11:38:49.505Z,2.90
2018-04-27T11:41:16.994Z,3.50
2018-04-27T11:43:44.493Z,2.77
2018-04-27T11:46:12.024Z,4.00
2018-04-27T11:48:39.521Z,2.80
2018-04-27T11:51:07.057Z,3.17
2018-04-27T11:53:34.540Z,3.37
2018-04-27T11:56:02.033Z,2.73
2018-04-27T11:58:29.551Z,2.53
2018-04-27T12:00:57.037Z,2.93
2018-04-27T12:03:24.950Z,2.70
2018-04-27T12:05:52.429Z,3.13
2018-04-27T12:08:19.904Z,1.97
2018-04-27T12:10:47.421Z,2.40
2018-04-27T12:13:14.902Z,1.80
2018-04-27T12:15:42.450Z,1.70
2018-04-27T12:18:09.974Z,1.50
2018-04-27T12:20:37.457Z,2.03
2018-04-27T12:23:04.958Z,2.27
2018-04-27T12:25:32.441Z,1.53
2018-04-27T12:28:00.134Z,1.63
2018-04-27T12:30:27.612Z,2.47
2018-04-27T12:32:55.085Z,1.57
2018-04-27T12:35:22.584Z,1.77
2018-04-27T12:37:50.079Z,1.53
2018-04-27T12:40:17.816Z,1.70
2018-04-27T12:42:45.293Z,1.17
2018-04-27T12:45:12.769Z,1.73
2018-04-27T12:47:40.269Z,2.03
2018-04-27T12:50:07.741Z,2.40
2018-04-27T12:52:35.441Z,2.00
2018-04-27T12:55:02.946Z,1.30
2018-04-27T12:57:30.437Z,1.60
2018-04-27T12:59:57.936Z,1.63
2018-04-27T13:02:25.421Z,2.10
2018-04-27T13:04:52.941Z,2.20
2018-04-27T13:07:20.417Z,1.53
2018-04-27T13:09:47.900Z,2.00
2018-04-27T13:12:15.429Z,2.43
2018-04-27T13:14:42.904Z,1.97
2018-04-27T13:17:10.566Z,1.93
2018-04-27T13:19:38.052Z,1.80
2018-04-27T13:22:05.566Z,2.37
2018-04-27T13:24:33.069Z,1.80
2018-04-27T13:27:00.577Z,2.07
2018-04-27T13:29:28.205Z,3.00
2018-04-27T13:31:55.694Z,2.10
2018-04-27T13:34:23.220Z,1.80
2018-04-27T13:36:50.715Z,1.63
2018-04-27T13:39:18.217Z,1.97
2018-04-27T13:41:45.962Z,2.37
2018-04-27T13:44:13.437Z,2.13
2018-04-27T13:46:40.925Z,2.50
2018-04-27T13:49:08.426Z,2.77
2018-04-27T13:51:35.949Z,3.37
2018-04-27T13:54:03.829Z,2.77
2018-04-27T13:56:31.305Z,1.70
2018-04-27T13:58:58.785Z,2.80
2018-04-27T14:01:26.297Z,3.20
2018-04-27T14:03:53.803Z,1.80
2018-04-27T14:06:21.312Z,2.13
2018-04-27T14:08:48.792Z,2.60
2018-04-27T14:11:16.336Z,2.63
2018-04-27T14:13:43.788Z,1.90
2018-04-27T14:16:11.272Z,2.33
2018-04-27T14:18:38.800Z,4.03
2018-04-27T14:21:06.281Z,2.27
2018-04-27T14:23:33.765Z,2.17
2018-04-27T14:26:01.270Z,2.03
2018-04-27T14:28:28.833Z,2.20
2018-04-27T14:30:56.596Z,3.07
2018-04-27T14:33:24.077Z,2.47
2018-04-27T14:35:51.553Z,2.40
2018-04-27T14:38:19.065Z,2.70
2018-04-27T14:40:46.538Z,2.33
2018-04-27T14:43:14.242Z,2.40
2018-04-27T14:45:41.841Z,2.60
2018-04-27T14:48:09.325Z,1.73
2018-04-27T14:50:36.834Z,2.73
2018-04-27T14:53:04.351Z,2.17
2018-04-27T14:55:32.204Z,1.87
2018-04-27T14:57:59.697Z,2.00
2018-04-27T15:00:27.183Z,1.50
2018-04-27T15:02:54.705Z,2.60
2018-04-27T15:05:22.177Z,1.80
2018-04-27T15:07:49.668Z,2.30
2018-04-27T15:10:17.190Z,2.50
2018-04-27T15:12:44.673Z,2.73
2018-04-27T15:15:12.153Z,2.40
2018-04-27T15:17:39.649Z,1.73
2018-04-27T15:20:07.145Z,1.20
2018-04-27T15:22:34.627Z,1.57
2018-04-27T15:25:02.174Z,1.87
2018-04-27T15:27:29.658Z,1.97
2018-04-27T15:29:57.133Z,1.63
2018-04-27T15:32:24.649Z,2.03
2018-04-27T15:34:52.133Z,1.30
2018-04-27T15:37:19.622Z,1.70
2018-04-27T15:39:47.142Z,1.70
2018-04-27T15:42:14.668Z,1.80
2018-04-27T15:44:42.144Z,1.73
2018-04-27T15:47:09.904Z,2.43
2018-04-27T15:49:37.381Z,2.90
2018-04-27T15:52:04.909Z,1.60
2018-04-27T15:54:32.401Z,1.40
2018-04-27T15:56:59.889Z,1.80
2018-04-27T15:59:27.642Z,1.53
2018-04-27T16:01:55.141Z,2.20
2018-04-27T16:04:22.661Z,2.10
2018-04-27T16:06:50.186Z,1.77
2018-04-27T16:09:17.790Z,1.93
2018-04-27T16:11:45.243Z,2.30
2018-04-27T16:14:12.725Z,1.73
2018-04-27T16:16:40.200Z,1.90
2018-04-27T16:19:07.719Z,2.20
2018-04-27T16:21:35.203Z,2.00
2018-04-27T16:24:02.969Z,2.20
2018-04-27T16:26:31.271Z,4.70
2018-04-27T16:28:58.749Z,2.00
2018-04-27T16:31:26.265Z,1.83
2018-04-27T16:33:53.748Z,1.67
2018-04-27T16:36:21.395Z,3.60
2018-04-27T16:38:48.882Z,2.20
2018-04-27T16:41:16.370Z,2.10
2018-04-27T16:43:44.745Z,2.63
2018-04-27T16:46:12.241Z,2.23
2018-04-27T16:48:39.760Z,10.03
2018-04-27T16:51:07.245Z,3.80
2018-04-27T16:53:34.724Z,2.70
2018-04-27T16:56:02.247Z,1.90
2018-04-27T16:58:29.770Z,2.43
2018-04-27T17:00:57.281Z,1.77
2018-04-27T17:03:24.797Z,2.57
2018-04-27T17:05:52.293Z,2.07
2018-04-27T17:08:19.789Z,1.83
2018-04-27T17:10:47.274Z,3.70
2018-04-27T17:13:14.806Z,1.40
2018-04-27T17:15:42.285Z,1.57
2018-04-27T17:18:09.774Z,1.87
2018-04-27T17:20:37.275Z,1.80
2018-04-27T17:23:04.753Z,1.70
2018-04-27T17:25:32.388Z,2.30
2018-04-27T17:27:59.885Z,2.23
2018-04-27T17:30:27.369Z,1.70
2018-04-27T17:32:54.870Z,1.40
2018-04-27T17:35:22.349Z,1.37
2018-04-27T17:37:50.025Z,1.40
2018-04-27T17:40:17.523Z,1.33
2018-04-27T17:42:45.054Z,1.03
2018-04-27T17:45:12.578Z,1.17
2018-04-27T17:47:40.135Z,0.93
2018-04-27T17:50:07.898Z,1.97
2018-04-27T17:52:35.370Z,1.30
2018-04-27T17:55:02.872Z,1.67
2018-04-27T17:57:30.373Z,1.10
2018-04-27T17:59:57.888Z,1.87
2018-04-27T18:02:25.536Z,2.00
2018-04-27T18:04:53.013Z,1.50
2018-04-27T18:07:20.513Z,1.43
2018-04-27T18:09:48.011Z,1.47
2018-04-27T18:12:15.637Z,1.07
2018-04-27T18:14:43.399Z,1.37
2018-04-27T18:17:10.873Z,1.10
2018-04-27T18:19:38.385Z,1.20
2018-04-27T18:22:05.897Z,1.00
2018-04-27T18:24:33.389Z,1.00
2018-04-27T18:27:01.364Z,1.10
2018-04-27T18:29:28.836Z,2.17
2018-04-27T18:31:56.337Z,1.23
2018-04-27T18:34:23.841Z,1.10
2018-04-27T18:36:51.329Z,1.23
2018-04-27T18:39:18.955Z,1.27
2018-04-27T18:41:46.369Z,1.67
2018-04-27T18:44:13.860Z,2.00
2018-04-27T18:46:41.362Z,1.80
2018-04-27T18:49:08.869Z,1.10
2018-04-27T18:51:36.564Z,1.07
2018-04-27T18:54:05.025Z,1.40
2018-04-27T18:56:34.934Z,1.30
2018-04-27T18:59:02.447Z,2.00
2018-04-27T19:01:29.944Z,1.70
2018-04-27T19:03:57.609Z,1.10
2018-04-27T19:06:25.840Z,1.30
2018-04-27T19:08:53.324Z,1.23
2018-04-27T19:11:20.860Z,3.60
2018-04-27T19:13:48.341Z,2.50
2018-04-27T19:16:15.863Z,1.83
2018-04-27T19:18:44.186Z,2.13
2018-04-27T19:21:11.669Z,1.67
2018-04-27T19:23:39.207Z,1.37
2018-04-27T19:26:11.558Z,1.80
2018-04-27T19:28:39.303Z,1.60
2018-04-27T19:31:06.835Z,1.60
2018-04-27T19:33:34.358Z,1.57
2018-04-27T19:36:01.895Z,1.10
2018-04-27T19:38:29.416Z,1.60
2018-04-27T19:40:56.979Z,1.10
2018-04-27T19:43:24.736Z,1.50
2018-04-27T19:45:52.930Z,1.50
2018-04-27T19:48:20.573Z,2.10
2018-04-27T19:50:48.490Z,1.60
2018-04-27T19:53:16.356Z,1.57
2018-04-27T19:55:43.944Z,2.33
2018-04-27T19:58:11.495Z,1.70
2018-04-27T20:00:39.057Z,1.40
2018-04-27T20:03:06.587Z,1.87
2018-04-27T20:05:34.468Z,1.40
2018-04-27T20:08:02.403Z,1.90
2018-04-27T20:10:40.100Z,1.60
2018-04-27T20:13:07.627Z,1.73
2018-04-27T20:15:38.539Z,1.80
2018-04-27T20:18:09.737Z,2.23
2018-04-27T20:20:37.770Z,2.00
2018-04-27T20:23:09.117Z,1.33
2018-04-27T20:25:36.649Z,2.10
2018-04-27T20:28:05.291Z,2.03
2018-04-27T20:30:32.785Z,2.73
2018-04-27T20:33:00.309Z,2.20
2018-04-27T20:35:27.863Z,1.90
2018-04-27T20:37:55.374Z,2.00
2018-04-27T20:40:25.669Z,2.20
2018-04-27T20:42:53.154Z,2.53
2018-04-27T20:45:21.661Z,2.53
2018-04-27T20:47:49.169Z,2.03
2018-04-27T20:50:16.651Z,2.83
2018-04-27T20:52:44.166Z,2.40
2018-04-27T20:55:15.374Z,2.40
2018-04-27T20:57:42.881Z,3.00
2018-04-27T21:00:10.375Z,3.17
2018-04-27T21:02:37.903Z,2.60
2018-04-27T21:05:05.488Z,2.50
2018-04-27T21:07:32.913Z,2.93
2018-04-27T21:10:00.422Z,2.90
2018-04-27T21:12:32.688Z,2.63
2018-04-27T21:15:00.509Z,2.63
2018-04-27T21:17:27.995Z,2.10
2018-04-27T21:19:55.481Z,2.30
2018-04-27T21:22:22.988Z,2.30
2018-04-27T21:24:50.552Z,2.20
2018-04-27T21:27:18.030Z,2.90
2018-04-27T21:29:45.525Z,2.60
2018-04-27T21:32:13.005Z,2.10
2018-04-27T21:34:40.508Z,2.20
2018-04-27T21:37:07.996Z,2.43
2018-04-27T21:39:35.496Z,2.30
2018-04-27T21:42:05.940Z,2.30
2018-04-27T21:44:35.900Z,2.23
2018-04-27T21:47:13.302Z,2.30
2018-04-27T21:49:40.821Z,2.50
2018-04-27T21:55:05.389Z,3.27
2018-04-27T21:57:48.941Z,2.60
2018-04-27T22:00:16.474Z,3.10
2018-04-27T22:02:54.752Z,3.63
2018-04-27T22:08:43.323Z,4.90
2018-04-27T22:11:21.357Z,5.40
2018-04-27T22:13:48.844Z,4.50
2018-04-27T22:16:19.923Z,4.50
2018-04-27T22:18:48.337Z,4.87
2018-04-27T22:21:15.819Z,4.40
2018-04-27T22:23:43.344Z,5.43
2018-04-27T22:26:11.732Z,3.97
2018-04-27T22:28:42.158Z,3.13
2018-04-27T22:31:09.652Z,4.60
2018-04-27T22:33:40.649Z,3.63
2018-04-27T22:36:29.913Z,2.97
2018-04-27T22:39:09.120Z,2.37
2018-04-27T22:41:36.606Z,3.40
2018-04-27T22:44:11.909Z,2.73
2018-04-27T22:46:39.399Z,3.30
2018-04-27T22:49:07.572Z,3.07
2018-04-27T22:51:44.853Z,2.87
2018-04-27T22:57:22.104Z,2.40
2018-04-27T22:59:50.268Z,2.50
2018-04-27T23:02:18.676Z,1.87
2018-04-27T23:04:46.753Z,2.03
2018-04-27T23:07:21.827Z,3.27
2018-04-27T23:09:51.732Z,2.20
2018-04-27T23:12:19.227Z,2.30
2018-04-27T23:14:46.697Z,2.53
2018-04-27T23:17:14.205Z,2.93
2018-04-27T23:19:48.380Z,3.03
2018-04-27T23:22:27.645Z,2.57
2018-04-27T23:25:00.790Z,4.23
2018-04-27T23:27:28.389Z,2.70
2018-04-27T23:29:55.893Z,3.10
2018-04-27T23:32:23.364Z,2.23
2018-04-27T23:34:50.865Z,2.53
2018-04-27T23:37:18.372Z,2.67
2018-04-27T23:39:45.997Z,2.83
2018-04-27T23:42:13.544Z,2.03
2018-04-27T23:44:41.033Z,2.30
2018-04-27T23:47:08.529Z,2.07
2018-04-27T23:49:35.999Z,1.67
2018-04-27T23:52:03.700Z,1.80
2018-04-27T23:54:31.173Z,2.20
2018-04-27T23:56:58.657Z,1.50
2018-04-27T23:59:26.160Z,2.97
